sensor_id;sensor_type;location;lat;lon;timestamp;P1;durP1;ratioP1;P2;durP2;ratioP2
18162;SDS011;9206;50.994;4.538;2024-01-06T00:02:35;3.67;;;2.63;;
18162;SDS011;9206;50.994;4.538;2024-01-06T00:05:22;4.77;;;2.77;;
18162;SDS011;9206;50.994;4.538;2024-01-06T00:08:15;7.17;;;3.73;;
18162;SDS011;9206;50.994;4.538;2024-01-06T00:13:52;7.27;;;3.70;;
18162;SDS011;9206;50.994;4.538;2024-01-06T00:19:30;9.67;;;4.90;;
18162;SDS011;9206;50.994;4.538;2024-01-06T00:22:17;7.57;;;5.27;;
18162;SDS011;9206;50.994;4.538;2024-01-06T00:25:07;8.00;;;4.80;;
18162;SDS011;9206;50.994;4.538;2024-01-06T00:33:36;5.80;;;5.00;;
18162;SDS011;9206;50.994;4.538;2024-01-06T00:36:27;13.63;;;5.43;;
18162;SDS011;9206;50.994;4.538;2024-01-06T00:39:14;6.47;;;4.30;;
18162;SDS011;9206;50.994;4.538;2024-01-06T00:45:03;6.80;;;3.90;;
18162;SDS011;9206;50.994;4.538;2024-01-06T00:47:50;7.77;;;4.47;;
18162;SDS011;9206;50.994;4.538;2024-01-06T00:50:37;6.77;;;4.60;;
18162;SDS011;9206;50.994;4.538;2024-01-06T00:53:26;6.87;;;3.77;;
18162;SDS011;9206;50.994;4.538;2024-01-06T00:56:16;4.60;;;3.70;;
18162;SDS011;9206;50.994;4.538;2024-01-06T00:59:21;4.60;;;3.40;;
18162;SDS011;9206;50.994;4.538;2024-01-06T01:02:11;6.03;;;3.17;;
18162;SDS011;9206;50.994;4.538;2024-01-06T01:05:01;3.30;;;3.00;;
18162;SDS011;9206;50.994;4.538;2024-01-06T01:07:55;3.30;;;3.03;;
18162;SDS011;9206;50.994;4.538;2024-01-06T01:13:36;4.37;;;3.23;;
18162;SDS011;9206;50.994;4.538;2024-01-06T01:19:14;4.23;;;2.97;;
18162;SDS011;9206;50.994;4.538;2024-01-06T01:24:51;4.30;;;3.03;;
18162;SDS011;9206;50.994;4.538;2024-01-06T01:27:43;6.10;;;3.80;;
18162;SDS011;9206;50.994;4.538;2024-01-06T01:30:45;3.47;;;3.20;;
18162;SDS011;9206;50.994;4.538;2024-01-06T01:42:03;5.30;;;3.70;;
18162;SDS011;9206;50.994;4.538;2024-01-06T01:44:51;4.03;;;3.30;;
18162;SDS011;9206;50.994;4.538;2024-01-06T01:47:38;3.67;;;3.47;;
18162;SDS011;9206;50.994;4.538;2024-01-06T01:50:42;4.10;;;3.70;;
18162;SDS011;9206;50.994;4.538;2024-01-06T01:53:32;4.23;;;3.93;;
18162;SDS011;9206;50.994;4.538;2024-01-06T01:56:20;5.93;;;4.33;;
18162;SDS011;9206;50.994;4.538;2024-01-06T01:59:11;4.20;;;3.80;;
18162;SDS011;9206;50.994;4.538;2024-01-06T02:02:01;5.00;;;4.50;;
18162;SDS011;9206;50.994;4.538;2024-01-06T02:11:15;5.63;;;5.13;;
18162;SDS011;9206;50.994;4.538;2024-01-06T02:16:55;6.30;;;5.80;;
18162;SDS011;9206;50.994;4.538;2024-01-06T02:19:45;8.57;;;6.20;;
18162;SDS011;9206;50.994;4.538;2024-01-06T02:22:37;6.60;;;6.00;;
18162;SDS011;9206;50.994;4.538;2024-01-06T02:25:24;8.20;;;6.40;;
18162;SDS011;9206;50.994;4.538;2024-01-06T02:33:52;7.23;;;6.73;;
18162;SDS011;9206;50.994;4.538;2024-01-06T02:36:39;8.00;;;7.20;;
18162;SDS011;9206;50.994;4.538;2024-01-06T02:39:27;8.77;;;7.97;;
18162;SDS011;9206;50.994;4.538;2024-01-06T02:42:15;9.10;;;8.23;;
18162;SDS011;9206;50.994;4.538;2024-01-06T02:45:02;7.57;;;6.97;;
18162;SDS011;9206;50.994;4.538;2024-01-06T02:47:52;12.40;;;8.53;;
18162;SDS011;9206;50.994;4.538;2024-01-06T02:53:29;14.93;;;9.07;;
18162;SDS011;9206;50.994;4.538;2024-01-06T02:56:18;10.73;;;8.73;;
18162;SDS011;9206;50.994;4.538;2024-01-06T02:59:08;11.83;;;9.53;;
18162;SDS011;9206;50.994;4.538;2024-01-06T03:01:55;10.77;;;9.73;;
18162;SDS011;9206;50.994;4.538;2024-01-06T03:04:43;10.33;;;8.70;;
18162;SDS011;9206;50.994;4.538;2024-01-06T03:07:31;11.87;;;9.30;;
18162;SDS011;9206;50.994;4.538;2024-01-06T03:10:18;9.63;;;8.63;;
18162;SDS011;9206;50.994;4.538;2024-01-06T03:13:06;12.90;;;9.00;;
18162;SDS011;9206;50.994;4.538;2024-01-06T03:15:53;10.07;;;9.17;;
18162;SDS011;9206;50.994;4.538;2024-01-06T03:18:42;11.97;;;8.77;;
18162;SDS011;9206;50.994;4.538;2024-01-06T03:21:29;9.97;;;8.97;;
18162;SDS011;9206;50.994;4.538;2024-01-06T03:24:16;10.70;;;8.67;;
18162;SDS011;9206;50.994;4.538;2024-01-06T03:27:03;12.90;;;9.20;;
18162;SDS011;9206;50.994;4.538;2024-01-06T03:29:54;9.37;;;8.40;;
18162;SDS011;9206;50.994;4.538;2024-01-06T03:32:41;10.47;;;9.37;;
18162;SDS011;9206;50.994;4.538;2024-01-06T03:35:29;16.00;;;9.50;;
18162;SDS011;9206;50.994;4.538;2024-01-06T03:38:18;13.83;;;9.97;;
18162;SDS011;9206;50.994;4.538;2024-01-06T03:41:05;11.13;;;9.87;;
18162;SDS011;9206;50.994;4.538;2024-01-06T03:43:52;15.17;;;9.83;;
18162;SDS011;9206;50.994;4.538;2024-01-06T03:46:41;11.73;;;10.00;;
18162;SDS011;9206;50.994;4.538;2024-01-06T03:49:29;11.60;;;10.20;;
18162;SDS011;9206;50.994;4.538;2024-01-06T03:52:16;10.90;;;9.73;;
18162;SDS011;9206;50.994;4.538;2024-01-06T03:55:04;16.07;;;11.03;;
18162;SDS011;9206;50.994;4.538;2024-01-06T03:57:52;14.17;;;10.03;;
18162;SDS011;9206;50.994;4.538;2024-01-06T04:03:30;14.50;;;10.33;;
18162;SDS011;9206;50.994;4.538;2024-01-06T04:06:17;13.60;;;10.17;;
18162;SDS011;9206;50.994;4.538;2024-01-06T04:09:04;13.70;;;10.67;;
18162;SDS011;9206;50.994;4.538;2024-01-06T04:11:51;13.43;;;10.07;;
18162;SDS011;9206;50.994;4.538;2024-01-06T04:14:38;14.23;;;10.53;;
18162;SDS011;9206;50.994;4.538;2024-01-06T04:17:27;11.37;;;9.80;;
18162;SDS011;9206;50.994;4.538;2024-01-06T04:20:16;14.07;;;10.20;;
18162;SDS011;9206;50.994;4.538;2024-01-06T04:23:10;11.13;;;9.87;;
18162;SDS011;9206;50.994;4.538;2024-01-06T04:25:57;16.47;;;9.23;;
18162;SDS011;9206;50.994;4.538;2024-01-06T04:28:44;10.67;;;9.37;;
18162;SDS011;9206;50.994;4.538;2024-01-06T04:31:33;9.03;;;8.27;;
18162;SDS011;9206;50.994;4.538;2024-01-06T04:34:20;12.73;;;8.70;;
18162;SDS011;9206;50.994;4.538;2024-01-06T04:37:10;8.83;;;7.93;;
18162;SDS011;9206;50.994;4.538;2024-01-06T04:40:04;13.80;;;8.30;;
18162;SDS011;9206;50.994;4.538;2024-01-06T04:42:52;10.83;;;8.20;;
18162;SDS011;9206;50.994;4.538;2024-01-06T04:45:40;9.33;;;7.97;;
18162;SDS011;9206;50.994;4.538;2024-01-06T04:48:28;8.13;;;7.30;;
18162;SDS011;9206;50.994;4.538;2024-01-06T04:51:16;10.43;;;7.33;;
18162;SDS011;9206;50.994;4.538;2024-01-06T04:54:05;11.20;;;7.73;;
18162;SDS011;9206;50.994;4.538;2024-01-06T04:56:53;8.33;;;7.57;;
18162;SDS011;9206;50.994;4.538;2024-01-06T04:59:41;8.73;;;7.37;;
18162;SDS011;9206;50.994;4.538;2024-01-06T05:02:28;9.33;;;7.63;;
18162;SDS011;9206;50.994;4.538;2024-01-06T05:05:15;9.30;;;6.67;;
18162;SDS011;9206;50.994;4.538;2024-01-06T05:08:02;7.70;;;6.97;;
18162;SDS011;9206;50.994;4.538;2024-01-06T05:10:52;8.87;;;7.23;;
18162;SDS011;9206;50.994;4.538;2024-01-06T05:13:39;9.10;;;7.03;;
18162;SDS011;9206;50.994;4.538;2024-01-06T05:16:29;6.57;;;5.97;;
18162;SDS011;9206;50.994;4.538;2024-01-06T05:19:16;6.43;;;5.80;;
18162;SDS011;9206;50.994;4.538;2024-01-06T05:22:08;9.00;;;6.60;;
18162;SDS011;9206;50.994;4.538;2024-01-06T05:24:58;10.50;;;6.20;;
18162;SDS011;9206;50.994;4.538;2024-01-06T05:27:50;6.17;;;5.67;;
18162;SDS011;9206;50.994;4.538;2024-01-06T05:30:41;7.13;;;5.83;;
18162;SDS011;9206;50.994;4.538;2024-01-06T05:33:30;6.10;;;5.60;;
18162;SDS011;9206;50.994;4.538;2024-01-06T05:36:20;8.37;;;5.40;;
18162;SDS011;9206;50.994;4.538;2024-01-06T05:41:59;4.97;;;4.57;;
18162;SDS011;9206;50.994;4.538;2024-01-06T05:44:48;4.90;;;4.57;;
18162;SDS011;9206;50.994;4.538;2024-01-06T05:47:35;5.93;;;5.30;;
18162;SDS011;9206;50.994;4.538;2024-01-06T05:50:22;5.63;;;4.97;;
18162;SDS011;9206;50.994;4.538;2024-01-06T05:53:10;6.70;;;4.83;;
18162;SDS011;9206;50.994;4.538;2024-01-06T05:55:59;5.70;;;5.30;;
18162;SDS011;9206;50.994;4.538;2024-01-06T05:58:46;6.50;;;4.80;;
18162;SDS011;9206;50.994;4.538;2024-01-06T06:01:36;5.13;;;4.83;;
18162;SDS011;9206;50.994;4.538;2024-01-06T06:07:13;6.03;;;5.60;;
18162;SDS011;9206;50.994;4.538;2024-01-06T06:10:02;7.97;;;5.87;;
18162;SDS011;9206;50.994;4.538;2024-01-06T06:12:52;5.77;;;5.37;;
18162;SDS011;9206;50.994;4.538;2024-01-06T06:15:42;6.60;;;6.20;;
18162;SDS011;9206;50.994;4.538;2024-01-06T06:18:30;6.37;;;5.93;;
18162;SDS011;9206;50.994;4.538;2024-01-06T06:21:19;8.20;;;6.43;;
18162;SDS011;9206;50.994;4.538;2024-01-06T06:24:07;6.50;;;5.90;;
18162;SDS011;9206;50.994;4.538;2024-01-06T06:26:55;5.70;;;5.20;;
18162;SDS011;9206;50.994;4.538;2024-01-06T06:29:44;8.90;;;6.33;;
18162;SDS011;9206;50.994;4.538;2024-01-06T06:32:34;14.33;;;5.53;;
18162;SDS011;9206;50.994;4.538;2024-01-06T06:35:23;6.13;;;5.00;;
18162;SDS011;9206;50.994;4.538;2024-01-06T06:38:11;6.37;;;4.47;;
18162;SDS011;9206;50.994;4.538;2024-01-06T06:40:58;5.50;;;5.10;;
18162;SDS011;9206;50.994;4.538;2024-01-06T06:43:46;5.90;;;5.13;;
18162;SDS011;9206;50.994;4.538;2024-01-06T06:46:33;5.70;;;5.30;;
18162;SDS011;9206;50.994;4.538;2024-01-06T06:49:20;4.93;;;4.43;;
18162;SDS011;9206;50.994;4.538;2024-01-06T06:52:09;7.47;;;5.30;;
18162;SDS011;9206;50.994;4.538;2024-01-06T06:54:59;6.33;;;5.73;;
18162;SDS011;9206;50.994;4.538;2024-01-06T06:57:47;7.07;;;5.10;;
18162;SDS011;9206;50.994;4.538;2024-01-06T07:06:18;7.60;;;6.43;;
18162;SDS011;9206;50.994;4.538;2024-01-06T07:09:10;7.00;;;6.40;;
18162;SDS011;9206;50.994;4.538;2024-01-06T07:14:47;8.07;;;7.20;;
18162;SDS011;9206;50.994;4.538;2024-01-06T07:17:36;8.00;;;6.63;;
18162;SDS011;9206;50.994;4.538;2024-01-06T07:26:35;7.77;;;7.00;;
18162;SDS011;9206;50.994;4.538;2024-01-06T07:32:15;7.53;;;6.87;;
18162;SDS011;9206;50.994;4.538;2024-01-06T07:35:02;9.47;;;7.60;;
18162;SDS011;9206;50.994;4.538;2024-01-06T07:37:56;7.80;;;7.10;;
18162;SDS011;9206;50.994;4.538;2024-01-06T07:40:45;8.00;;;7.40;;
18162;SDS011;9206;50.994;4.538;2024-01-06T07:43:37;7.67;;;6.90;;
18162;SDS011;9206;50.994;4.538;2024-01-06T07:46:24;8.43;;;7.63;;
18162;SDS011;9206;50.994;4.538;2024-01-06T07:49:13;7.73;;;7.07;;
18162;SDS011;9206;50.994;4.538;2024-01-06T07:52:00;7.83;;;7.03;;
18162;SDS011;9206;50.994;4.538;2024-01-06T07:57:38;8.37;;;7.67;;
18162;SDS011;9206;50.994;4.538;2024-01-06T08:00:26;8.50;;;7.67;;
18162;SDS011;9206;50.994;4.538;2024-01-06T08:03:15;7.83;;;7.20;;
18162;SDS011;9206;50.994;4.538;2024-01-06T08:06:05;8.10;;;7.40;;
18162;SDS011;9206;50.994;4.538;2024-01-06T08:08:56;8.47;;;7.67;;
18162;SDS011;9206;50.994;4.538;2024-01-06T08:11:43;8.60;;;7.93;;
18162;SDS011;9206;50.994;4.538;2024-01-06T08:14:33;8.33;;;7.73;;
18162;SDS011;9206;50.994;4.538;2024-01-06T08:17:25;9.67;;;8.20;;
18162;SDS011;9206;50.994;4.538;2024-01-06T08:20:16;9.17;;;8.27;;
18162;SDS011;9206;50.994;4.538;2024-01-06T08:23:03;8.27;;;7.43;;
18162;SDS011;9206;50.994;4.538;2024-01-06T08:25:53;10.70;;;7.23;;
18162;SDS011;9206;50.994;4.538;2024-01-06T08:28:40;9.27;;;8.07;;
18162;SDS011;9206;50.994;4.538;2024-01-06T08:31:27;7.87;;;6.97;;
18162;SDS011;9206;50.994;4.538;2024-01-06T08:34:16;8.40;;;7.60;;
18162;SDS011;9206;50.994;4.538;2024-01-06T08:37:04;8.53;;;7.70;;
18162;SDS011;9206;50.994;4.538;2024-01-06T08:39:52;6.70;;;6.10;;
18162;SDS011;9206;50.994;4.538;2024-01-06T08:42:39;7.47;;;6.57;;
18162;SDS011;9206;50.994;4.538;2024-01-06T08:45:26;7.27;;;6.57;;
18162;SDS011;9206;50.994;4.538;2024-01-06T08:48:14;8.07;;;6.87;;
18162;SDS011;9206;50.994;4.538;2024-01-06T08:51:02;6.87;;;6.37;;
18162;SDS011;9206;50.994;4.538;2024-01-06T08:53:51;7.20;;;6.50;;
18162;SDS011;9206;50.994;4.538;2024-01-06T08:56:38;5.73;;;5.17;;
18162;SDS011;9206;50.994;4.538;2024-01-06T08:59:25;6.03;;;5.53;;
18162;SDS011;9206;50.994;4.538;2024-01-06T09:02:12;7.47;;;4.97;;
18162;SDS011;9206;50.994;4.538;2024-01-06T09:04:59;6.33;;;5.83;;
18162;SDS011;9206;50.994;4.538;2024-01-06T09:07:48;7.60;;;5.53;;
18162;SDS011;9206;50.994;4.538;2024-01-06T09:10:35;5.77;;;5.07;;
18162;SDS011;9206;50.994;4.538;2024-01-06T09:13:22;5.83;;;5.33;;
18162;SDS011;9206;50.994;4.538;2024-01-06T09:16:09;5.57;;;5.07;;
18162;SDS011;9206;50.994;4.538;2024-01-06T09:19:00;4.83;;;4.53;;
18162;SDS011;9206;50.994;4.538;2024-01-06T09:24:38;4.97;;;4.57;;
18162;SDS011;9206;50.994;4.538;2024-01-06T09:27:25;7.53;;;5.23;;
18162;SDS011;9206;50.994;4.538;2024-01-06T09:30:12;6.10;;;5.53;;
18162;SDS011;9206;50.994;4.538;2024-01-06T09:32:59;6.20;;;5.70;;
18162;SDS011;9206;50.994;4.538;2024-01-06T09:35:48;5.87;;;5.47;;
18162;SDS011;9206;50.994;4.538;2024-01-06T09:38:35;5.50;;;5.03;;
18162;SDS011;9206;50.994;4.538;2024-01-06T09:41:24;6.47;;;4.97;;
18162;SDS011;9206;50.994;4.538;2024-01-06T09:44:11;5.23;;;4.90;;
18162;SDS011;9206;50.994;4.538;2024-01-06T09:47:00;8.20;;;5.27;;
18162;SDS011;9206;50.994;4.538;2024-01-06T09:49:50;6.53;;;5.70;;
18162;SDS011;9206;50.994;4.538;2024-01-06T09:52:41;5.97;;;5.57;;
18162;SDS011;9206;50.994;4.538;2024-01-06T09:55:28;6.10;;;5.53;;
18162;SDS011;9206;50.994;4.538;2024-01-06T09:58:17;5.70;;;5.20;;
18162;SDS011;9206;50.994;4.538;2024-01-06T10:01:04;5.33;;;4.93;;
18162;SDS011;9206;50.994;4.538;2024-01-06T10:03:55;4.93;;;4.63;;
18162;SDS011;9206;50.994;4.538;2024-01-06T10:06:44;4.83;;;4.43;;
18162;SDS011;9206;50.994;4.538;2024-01-06T10:09:34;4.63;;;4.33;;
18162;SDS011;9206;50.994;4.538;2024-01-06T10:12:22;4.87;;;4.57;;
18162;SDS011;9206;50.994;4.538;2024-01-06T10:15:12;4.53;;;4.23;;
18162;SDS011;9206;50.994;4.538;2024-01-06T10:17:59;5.67;;;4.60;;
18162;SDS011;9206;50.994;4.538;2024-01-06T10:20:48;5.70;;;4.83;;
18162;SDS011;9206;50.994;4.538;2024-01-06T10:23:37;5.60;;;5.20;;
18162;SDS011;9206;50.994;4.538;2024-01-06T10:26:24;5.70;;;5.30;;
18162;SDS011;9206;50.994;4.538;2024-01-06T10:29:12;4.93;;;4.63;;
18162;SDS011;9206;50.994;4.538;2024-01-06T10:37:45;4.70;;;4.50;;
18162;SDS011;9206;50.994;4.538;2024-01-06T10:40:32;5.07;;;4.77;;
18162;SDS011;9206;50.994;4.538;2024-01-06T10:43:21;5.63;;;5.23;;
18162;SDS011;9206;50.994;4.538;2024-01-06T10:46:13;7.37;;;5.47;;
18162;SDS011;9206;50.994;4.538;2024-01-06T10:49:03;5.43;;;5.03;;
18162;SDS011;9206;50.994;4.538;2024-01-06T10:51:53;6.47;;;5.97;;
18162;SDS011;9206;50.994;4.538;2024-01-06T10:57:35;6.40;;;6.00;;
18162;SDS011;9206;50.994;4.538;2024-01-06T11:00:26;5.77;;;5.40;;
18162;SDS011;9206;50.994;4.538;2024-01-06T11:03:24;5.33;;;5.03;;
18162;SDS011;9206;50.994;4.538;2024-01-06T11:06:13;5.87;;;5.47;;
18162;SDS011;9206;50.994;4.538;2024-01-06T11:09:02;5.97;;;5.57;;
18162;SDS011;9206;50.994;4.538;2024-01-06T11:11:55;6.73;;;5.47;;
18162;SDS011;9206;50.994;4.538;2024-01-06T11:14:43;5.23;;;4.73;;
18162;SDS011;9206;50.994;4.538;2024-01-06T11:24:15;6.43;;;5.53;;
18162;SDS011;9206;50.994;4.538;2024-01-06T11:27:06;6.13;;;5.57;;
18162;SDS011;9206;50.994;4.538;2024-01-06T11:29:54;6.47;;;5.93;;
18162;SDS011;9206;50.994;4.538;2024-01-06T11:32:42;7.73;;;5.60;;
18162;SDS011;9206;50.994;4.538;2024-01-06T11:35:32;7.63;;;5.80;;
18162;SDS011;9206;50.994;4.538;2024-01-06T11:38:20;5.73;;;5.43;;
18162;SDS011;9206;50.994;4.538;2024-01-06T11:41:10;5.10;;;4.80;;
18162;SDS011;9206;50.994;4.538;2024-01-06T11:44:18;5.37;;;5.03;;
18162;SDS011;9206;50.994;4.538;2024-01-06T11:47:06;6.00;;;5.50;;
18162;SDS011;9206;50.994;4.538;2024-01-06T11:49:58;6.10;;;5.70;;
18162;SDS011;9206;50.994;4.538;2024-01-06T11:52:48;6.00;;;5.60;;
18162;SDS011;9206;50.994;4.538;2024-01-06T11:58:29;6.60;;;6.10;;
18162;SDS011;9206;50.994;4.538;2024-01-06T12:01:18;6.73;;;6.10;;
18162;SDS011;9206;50.994;4.538;2024-01-06T12:04:05;6.47;;;5.97;;
18162;SDS011;9206;50.994;4.538;2024-01-06T12:06:53;6.57;;;5.13;;
18162;SDS011;9206;50.994;4.538;2024-01-06T12:09:51;5.90;;;5.50;;
18162;SDS011;9206;50.994;4.538;2024-01-06T12:12:55;6.13;;;5.63;;
18162;SDS011;9206;50.994;4.538;2024-01-06T12:15:44;6.00;;;5.60;;
18162;SDS011;9206;50.994;4.538;2024-01-06T12:18:31;6.37;;;5.87;;
18162;SDS011;9206;50.994;4.538;2024-01-06T12:21:18;5.20;;;4.90;;
18162;SDS011;9206;50.994;4.538;2024-01-06T12:24:12;6.20;;;5.80;;
18162;SDS011;9206;50.994;4.538;2024-01-06T12:27:06;5.90;;;5.40;;
18162;SDS011;9206;50.994;4.538;2024-01-06T12:29:55;5.47;;;5.17;;
18162;SDS011;9206;50.994;4.538;2024-01-06T12:32:42;5.80;;;5.50;;
18162;SDS011;9206;50.994;4.538;2024-01-06T12:35:30;5.87;;;5.47;;
18162;SDS011;9206;50.994;4.538;2024-01-06T12:38:19;5.93;;;5.57;;
18162;SDS011;9206;50.994;4.538;2024-01-06T12:41:06;6.40;;;5.90;;
18162;SDS011;9206;50.994;4.538;2024-01-06T12:43:53;6.03;;;5.33;;
18162;SDS011;9206;50.994;4.538;2024-01-06T12:46:42;6.30;;;5.33;;
18162;SDS011;9206;50.994;4.538;2024-01-06T12:52:25;6.33;;;5.83;;
18162;SDS011;9206;50.994;4.538;2024-01-06T12:55:12;7.97;;;7.07;;
18162;SDS011;9206;50.994;4.538;2024-01-06T12:58:00;7.93;;;6.37;;
18162;SDS011;9206;50.994;4.538;2024-01-06T13:00:49;7.67;;;6.97;;
18162;SDS011;9206;50.994;4.538;2024-01-06T13:03:37;12.67;;;7.90;;
18162;SDS011;9206;50.994;4.538;2024-01-06T13:06:25;13.80;;;8.20;;
18162;SDS011;9206;50.994;4.538;2024-01-06T13:09:28;8.63;;;7.20;;
18162;SDS011;9206;50.994;4.538;2024-01-06T13:12:15;8.40;;;6.40;;
18162;SDS011;9206;50.994;4.538;2024-01-06T13:15:04;11.87;;;8.07;;
18162;SDS011;9206;50.994;4.538;2024-01-06T13:17:57;7.63;;;6.93;;
18162;SDS011;9206;50.994;4.538;2024-01-06T13:20:46;6.43;;;5.83;;
18162;SDS011;9206;50.994;4.538;2024-01-06T13:23:33;6.20;;;5.80;;
18162;SDS011;9206;50.994;4.538;2024-01-06T13:26:20;5.67;;;5.27;;
18162;SDS011;9206;50.994;4.538;2024-01-06T13:29:07;7.20;;;5.33;;
18162;SDS011;9206;50.994;4.538;2024-01-06T13:31:54;6.50;;;5.90;;
18162;SDS011;9206;50.994;4.538;2024-01-06T13:34:42;8.20;;;6.93;;
18162;SDS011;9206;50.994;4.538;2024-01-06T13:37:31;6.17;;;5.63;;
18162;SDS011;9206;50.994;4.538;2024-01-06T13:40:18;5.10;;;4.70;;
18162;SDS011;9206;50.994;4.538;2024-01-06T13:43:06;5.73;;;4.83;;
18162;SDS011;9206;50.994;4.538;2024-01-06T13:45:54;6.30;;;5.67;;
18162;SDS011;9206;50.994;4.538;2024-01-06T13:54:23;4.80;;;4.43;;
18162;SDS011;9206;50.994;4.538;2024-01-06T13:57:11;5.30;;;4.80;;
18162;SDS011;9206;50.994;4.538;2024-01-06T13:59:58;5.73;;;4.57;;
18162;SDS011;9206;50.994;4.538;2024-01-06T14:02:45;6.80;;;5.90;;
18162;SDS011;9206;50.994;4.538;2024-01-06T14:05:33;5.07;;;4.67;;
18162;SDS011;9206;50.994;4.538;2024-01-06T14:08:21;5.57;;;5.07;;
18162;SDS011;9206;50.994;4.538;2024-01-06T14:11:10;6.73;;;5.70;;
18162;SDS011;9206;50.994;4.538;2024-01-06T14:13:58;6.63;;;5.97;;
18162;SDS011;9206;50.994;4.538;2024-01-06T14:16:46;7.73;;;5.57;;
18162;SDS011;9206;50.994;4.538;2024-01-06T14:19:33;5.00;;;4.60;;
18162;SDS011;9206;50.994;4.538;2024-01-06T14:22:20;5.70;;;5.07;;
18162;SDS011;9206;50.994;4.538;2024-01-06T14:25:07;5.93;;;5.30;;
18162;SDS011;9206;50.994;4.538;2024-01-06T14:27:56;8.73;;;4.90;;
18162;SDS011;9206;50.994;4.538;2024-01-06T14:30:43;5.43;;;5.03;;
18162;SDS011;9206;50.994;4.538;2024-01-06T14:33:30;5.57;;;5.17;;
18162;SDS011;9206;50.994;4.538;2024-01-06T14:36:20;5.63;;;5.13;;
18162;SDS011;9206;50.994;4.538;2024-01-06T14:39:07;5.30;;;4.90;;
18162;SDS011;9206;50.994;4.538;2024-01-06T14:41:54;6.17;;;4.90;;
18162;SDS011;9206;50.994;4.538;2024-01-06T14:44:42;5.20;;;4.80;;
18162;SDS011;9206;50.994;4.538;2024-01-06T14:47:29;5.60;;;5.10;;
18162;SDS011;9206;50.994;4.538;2024-01-06T14:50:17;5.53;;;5.03;;
18162;SDS011;9206;50.994;4.538;2024-01-06T14:53:04;5.60;;;5.10;;
18162;SDS011;9206;50.994;4.538;2024-01-06T14:55:52;5.53;;;5.07;;
18162;SDS011;9206;50.994;4.538;2024-01-06T15:01:30;5.10;;;4.67;;
18162;SDS011;9206;50.994;4.538;2024-01-06T15:04:17;5.50;;;5.00;;
18162;SDS011;9206;50.994;4.538;2024-01-06T15:07:05;5.17;;;4.87;;
18162;SDS011;9206;50.994;4.538;2024-01-06T15:09:52;4.97;;;4.60;;
18162;SDS011;9206;50.994;4.538;2024-01-06T15:12:39;5.30;;;4.80;;
18162;SDS011;9206;50.994;4.538;2024-01-06T15:15:26;4.53;;;4.23;;
18162;SDS011;9206;50.994;4.538;2024-01-06T15:18:15;4.60;;;4.30;;
18162;SDS011;9206;50.994;4.538;2024-01-06T15:21:05;4.50;;;4.20;;
18162;SDS011;9206;50.994;4.538;2024-01-06T15:23:52;4.43;;;4.10;;
18162;SDS011;9206;50.994;4.538;2024-01-06T15:26:40;4.60;;;4.30;;
18162;SDS011;9206;50.994;4.538;2024-01-06T15:29:27;3.73;;;3.53;;
18162;SDS011;9206;50.994;4.538;2024-01-06T15:32:14;3.80;;;3.57;;
18162;SDS011;9206;50.994;4.538;2024-01-06T15:35:03;4.17;;;3.90;;
18162;SDS011;9206;50.994;4.538;2024-01-06T15:37:51;3.80;;;3.60;;
18162;SDS011;9206;50.994;4.538;2024-01-06T15:40:38;3.67;;;3.47;;
18162;SDS011;9206;50.994;4.538;2024-01-06T15:43:26;2.90;;;2.80;;
18162;SDS011;9206;50.994;4.538;2024-01-06T15:46:13;3.07;;;2.90;;
18162;SDS011;9206;50.994;4.538;2024-01-06T15:49:01;3.47;;;3.17;;
18162;SDS011;9206;50.994;4.538;2024-01-06T15:51:50;3.33;;;3.13;;
18162;SDS011;9206;50.994;4.538;2024-01-06T15:54:37;3.90;;;3.60;;
18162;SDS011;9206;50.994;4.538;2024-01-06T15:57:24;4.33;;;3.97;;
18162;SDS011;9206;50.994;4.538;2024-01-06T16:00:13;3.93;;;3.73;;
18162;SDS011;9206;50.994;4.538;2024-01-06T16:03:08;3.67;;;3.47;;
18162;SDS011;9206;50.994;4.538;2024-01-06T16:05:55;4.47;;;3.67;;
18162;SDS011;9206;50.994;4.538;2024-01-06T16:08:43;4.00;;;3.70;;
18162;SDS011;9206;50.994;4.538;2024-01-06T16:11:30;3.20;;;3.00;;
18162;SDS011;9206;50.994;4.538;2024-01-06T16:14:17;3.40;;;3.20;;
18162;SDS011;9206;50.994;4.538;2024-01-06T16:17:05;3.80;;;3.60;;
18162;SDS011;9206;50.994;4.538;2024-01-06T16:19:54;3.40;;;3.20;;
18162;SDS011;9206;50.994;4.538;2024-01-06T16:22:41;4.33;;;4.03;;
18162;SDS011;9206;50.994;4.538;2024-01-06T16:25:30;5.00;;;4.60;;
18162;SDS011;9206;50.994;4.538;2024-01-06T16:28:18;4.43;;;4.13;;
18162;SDS011;9206;50.994;4.538;2024-01-06T16:31:07;4.53;;;4.13;;
18162;SDS011;9206;50.994;4.538;2024-01-06T16:33:54;3.80;;;3.50;;
18162;SDS011;9206;50.994;4.538;2024-01-06T16:36:41;4.10;;;3.80;;
18162;SDS011;9206;50.994;4.538;2024-01-06T16:39:28;5.10;;;4.80;;
18162;SDS011;9206;50.994;4.538;2024-01-06T16:42:17;5.43;;;5.03;;
18162;SDS011;9206;50.994;4.538;2024-01-06T16:45:06;3.90;;;3.60;;
18162;SDS011;9206;50.994;4.538;2024-01-06T16:47:54;4.33;;;4.03;;
18162;SDS011;9206;50.994;4.538;2024-01-06T16:50:41;3.47;;;3.27;;
18162;SDS011;9206;50.994;4.538;2024-01-06T16:53:28;3.50;;;3.30;;
18162;SDS011;9206;50.994;4.538;2024-01-06T16:56:16;3.80;;;3.50;;
18162;SDS011;9206;50.994;4.538;2024-01-06T16:59:04;4.40;;;4.10;;
18162;SDS011;9206;50.994;4.538;2024-01-06T17:01:51;4.60;;;4.20;;
18162;SDS011;9206;50.994;4.538;2024-01-06T17:04:39;3.87;;;3.57;;
18162;SDS011;9206;50.994;4.538;2024-01-06T17:07:26;4.03;;;3.73;;
18162;SDS011;9206;50.994;4.538;2024-01-06T17:10:13;5.10;;;4.70;;
18162;SDS011;9206;50.994;4.538;2024-01-06T17:13:00;4.30;;;3.90;;
18162;SDS011;9206;50.994;4.538;2024-01-06T17:15:49;4.00;;;3.73;;
18162;SDS011;9206;50.994;4.538;2024-01-06T17:18:36;3.57;;;3.37;;
18162;SDS011;9206;50.994;4.538;2024-01-06T17:21:23;3.80;;;3.60;;
18162;SDS011;9206;50.994;4.538;2024-01-06T17:24:10;3.40;;;3.20;;
18162;SDS011;9206;50.994;4.538;2024-01-06T17:26:57;3.17;;;2.83;;
18162;SDS011;9206;50.994;4.538;2024-01-06T17:29:44;3.00;;;2.80;;
18162;SDS011;9206;50.994;4.538;2024-01-06T17:32:33;3.00;;;2.70;;
18162;SDS011;9206;50.994;4.538;2024-01-06T17:35:20;2.97;;;2.70;;
18162;SDS011;9206;50.994;4.538;2024-01-06T17:38:07;2.80;;;2.60;;
18162;SDS011;9206;50.994;4.538;2024-01-06T17:40:54;2.83;;;2.73;;
18162;SDS011;9206;50.994;4.538;2024-01-06T17:43:41;3.30;;;2.47;;
18162;SDS011;9206;50.994;4.538;2024-01-06T17:46:28;2.77;;;2.67;;
18162;SDS011;9206;50.994;4.538;2024-01-06T17:49:17;3.40;;;2.50;;
18162;SDS011;9206;50.994;4.538;2024-01-06T17:52:04;3.00;;;2.80;;
18162;SDS011;9206;50.994;4.538;2024-01-06T17:54:51;3.23;;;3.03;;
18162;SDS011;9206;50.994;4.538;2024-01-06T17:57:38;2.97;;;2.87;;
18162;SDS011;9206;50.994;4.538;2024-01-06T18:00:26;3.97;;;3.60;;
18162;SDS011;9206;50.994;4.538;2024-01-06T18:03:15;3.83;;;3.63;;
18162;SDS011;9206;50.994;4.538;2024-01-06T18:06:04;3.80;;;3.60;;
18162;SDS011;9206;50.994;4.538;2024-01-06T18:08:52;3.83;;;3.60;;
18162;SDS011;9206;50.994;4.538;2024-01-06T18:11:39;4.40;;;4.00;;
18162;SDS011;9206;50.994;4.538;2024-01-06T18:14:27;4.77;;;4.40;;
18162;SDS011;9206;50.994;4.538;2024-01-06T18:17:21;4.43;;;4.13;;
18162;SDS011;9206;50.994;4.538;2024-01-06T18:20:08;6.77;;;6.27;;
18162;SDS011;9206;50.994;4.538;2024-01-06T18:22:58;5.17;;;4.87;;
18162;SDS011;9206;50.994;4.538;2024-01-06T18:25:46;3.87;;;3.67;;
18162;SDS011;9206;50.994;4.538;2024-01-06T18:28:33;4.20;;;4.00;;
18162;SDS011;9206;50.994;4.538;2024-01-06T18:31:21;4.83;;;4.43;;
18162;SDS011;9206;50.994;4.538;2024-01-06T18:34:08;4.37;;;4.07;;
18162;SDS011;9206;50.994;4.538;2024-01-06T18:36:57;4.50;;;4.30;;
18162;SDS011;9206;50.994;4.538;2024-01-06T18:39:45;4.30;;;4.00;;
18162;SDS011;9206;50.994;4.538;2024-01-06T18:42:34;4.57;;;4.27;;
18162;SDS011;9206;50.994;4.538;2024-01-06T18:45:22;4.77;;;4.47;;
18162;SDS011;9206;50.994;4.538;2024-01-06T18:48:10;4.20;;;3.90;;
18162;SDS011;9206;50.994;4.538;2024-01-06T18:50:57;4.20;;;3.90;;
18162;SDS011;9206;50.994;4.538;2024-01-06T18:53:45;4.40;;;4.03;;
18162;SDS011;9206;50.994;4.538;2024-01-06T18:56:34;3.63;;;3.43;;
18162;SDS011;9206;50.994;4.538;2024-01-06T18:59:22;3.80;;;3.53;;
18162;SDS011;9206;50.994;4.538;2024-01-06T19:02:09;3.60;;;3.43;;